createdAt,value
2019-02-14T00:00:07.726Z,16.32
2019-02-14T00:02:33.776Z,13.30
2019-02-14T00:04:59.594Z,12.15
2019-02-14T00:07:25.388Z,14.13
2019-02-14T00:09:51.271Z,13.87
2019-02-14T00:12:17.327Z,18.47
2019-02-14T00:14:43.142Z,18.82
2019-02-14T00:17:08.945Z,21.67
2019-02-14T00:19:34.806Z,16.93
2019-02-14T00:22:00.623Z,20.40
2019-02-14T00:24:29.238Z,15.97
2019-02-14T00:26:55.112Z,14.68
2019-02-14T00:29:20.921Z,19.53
2019-02-14T00:31:47.008Z,11.60
2019-02-14T00:34:13.136Z,13.50
2019-02-14T00:36:39.329Z,12.00
2019-02-14T00:39:05.577Z,14.53
2019-02-14T00:41:31.653Z,11.35
2019-02-14T00:43:57.484Z,17.10
2019-02-14T00:46:23.385Z,9.40
2019-02-14T00:48:49.601Z,17.07
2019-02-14T00:51:15.412Z,11.95
2019-02-14T00:53:41.238Z,15.67
2019-02-14T00:56:07.347Z,13.97
2019-02-14T00:58:36.095Z,15.13
2019-02-14T01:01:02.006Z,12.75
2019-02-14T01:03:30.730Z,18.53
2019-02-14T01:05:56.637Z,11.12
2019-02-14T01:08:27.252Z,10.43
2019-02-14T01:10:53.060Z,12.58
2019-02-14T01:13:22.224Z,11.50
2019-02-14T01:15:49.166Z,22.13
2019-02-14T01:18:14.943Z,8.05
2019-02-14T01:20:40.768Z,9.90
2019-02-14T01:23:06.665Z,8.47
2019-02-14T01:25:32.504Z,10.80
2019-02-14T01:27:58.292Z,13.33
2019-02-14T01:30:27.145Z,13.37
2019-02-14T01:32:53.230Z,13.88
2019-02-14T01:35:22.246Z,13.38
2019-02-14T01:37:48.301Z,9.33
2019-02-14T01:40:16.879Z,15.10
2019-02-14T01:42:42.976Z,20.70
2019-02-14T01:45:21.815Z,9.95
2019-02-14T01:47:49.576Z,10.45
2019-02-14T01:50:18.228Z,11.93
2019-02-14T01:52:44.040Z,15.98
2019-02-14T01:55:09.863Z,12.67
2019-02-14T01:57:35.704Z,15.73
2019-02-14T02:00:01.718Z,10.17
2019-02-14T02:02:27.843Z,23.65
2019-02-14T02:04:53.671Z,12.20
2019-02-14T02:07:19.907Z,11.50
2019-02-14T02:09:45.777Z,11.00
2019-02-14T02:12:12.105Z,15.37
2019-02-14T02:14:38.224Z,7.50
2019-02-14T02:17:04.053Z,11.12
2019-02-14T02:19:30.180Z,10.30
2019-02-14T02:21:56.011Z,12.55
2019-02-14T02:24:22.114Z,9.20
2019-02-14T02:26:52.609Z,8.40
2019-02-14T02:29:18.480Z,15.78
2019-02-14T02:31:44.299Z,13.73
2019-02-14T02:34:10.085Z,10.67
2019-02-14T02:36:35.917Z,10.73
2019-02-14T02:39:05.994Z,7.77
2019-02-14T02:41:31.824Z,9.40
2019-02-14T02:43:57.723Z,6.40
2019-02-14T02:46:23.539Z,8.70
2019-02-14T02:48:52.298Z,13.67
2019-02-14T02:51:18.408Z,14.83
2019-02-14T02:53:46.720Z,11.95
2019-02-14T02:56:12.565Z,11.08
2019-02-14T02:58:40.704Z,7.90
2019-02-14T03:01:06.501Z,10.98
2019-02-14T03:03:36.156Z,8.80
2019-02-14T03:06:10.197Z,7.05
2019-02-14T03:08:29.961Z,8.18
2019-02-14T03:10:55.859Z,7.60
2019-02-14T03:13:21.949Z,13.20
2019-02-14T03:15:48.013Z,8.50
2019-02-14T03:18:14.103Z,8.90
2019-02-14T03:20:43.228Z,8.08
2019-02-14T03:23:09.093Z,6.67
2019-02-14T03:25:38.246Z,12.53
2019-02-14T03:28:04.058Z,11.38
2019-02-14T03:30:33.003Z,12.13
2019-02-14T03:32:58.813Z,13.25
2019-02-14T03:35:27.395Z,9.80
2019-02-14T03:37:53.237Z,12.45
2019-02-14T03:40:22.066Z,7.23
2019-02-14T03:42:48.166Z,9.88
2019-02-14T03:45:18.313Z,10.82
2019-02-14T03:47:44.113Z,5.97
2019-02-14T03:50:11.130Z,6.87
2019-02-14T03:52:37.076Z,8.58
2019-02-14T03:55:04.714Z,5.83
2019-02-14T03:57:30.543Z,5.45
2019-02-14T03:59:56.362Z,12.67
2019-02-14T04:02:22.194Z,10.10
2019-02-14T04:04:48.017Z,6.37
2019-02-14T04:07:17.577Z,9.37
2019-02-14T04:09:43.731Z,9.63
2019-02-14T04:12:11.718Z,8.48
2019-02-14T04:14:44.756Z,11.55
2019-02-14T04:17:10.762Z,7.10
2019-02-14T04:19:36.869Z,6.75
2019-02-14T04:22:02.995Z,8.33
2019-02-14T04:24:37.181Z,9.23
2019-02-14T04:27:03.414Z,8.43
2019-02-14T04:29:29.464Z,9.25
2019-02-14T04:31:55.328Z,10.00
2019-02-14T04:34:21.542Z,8.57
2019-02-14T04:36:47.381Z,11.18
2019-02-14T04:39:13.452Z,10.23
2019-02-14T04:41:39.548Z,12.90
2019-02-14T04:44:05.642Z,11.43
2019-02-14T04:46:31.669Z,13.32
2019-02-14T04:48:57.502Z,13.85
2019-02-14T04:51:25.274Z,15.80
2019-02-14T04:53:54.262Z,22.95
2019-02-14T04:56:20.846Z,16.12
2019-02-14T04:58:46.676Z,13.10
2019-02-14T05:01:12.581Z,18.33
2019-02-14T05:03:38.386Z,19.43
2019-02-14T05:06:04.186Z,13.93
2019-02-14T05:08:30.007Z,11.77
2019-02-14T05:10:58.562Z,18.60
2019-02-14T05:13:24.399Z,16.75
2019-02-14T05:15:52.839Z,15.03
2019-02-14T05:18:18.706Z,16.97
2019-02-14T05:20:47.514Z,17.73
2019-02-14T05:23:13.342Z,32.05
2019-02-14T05:25:42.409Z,14.80
2019-02-14T05:28:08.269Z,15.08
2019-02-14T05:30:37.386Z,13.33
2019-02-14T05:33:03.174Z,16.32
2019-02-14T05:35:29.012Z,10.33
2019-02-14T05:37:54.805Z,16.60
2019-02-14T05:40:21.013Z,15.97
2019-02-14T05:42:49.701Z,12.63
2019-02-14T05:45:15.629Z,24.57
2019-02-14T05:47:43.630Z,15.87
2019-02-14T05:50:11.022Z,12.15
2019-02-14T05:52:39.590Z,12.82
2019-02-14T05:55:10.172Z,10.78
2019-02-14T05:57:36.379Z,17.70
2019-02-14T06:00:05.339Z,16.95
2019-02-14T06:02:32.227Z,16.52
2019-02-14T06:04:58.633Z,15.98
2019-02-14T06:07:24.547Z,15.48
2019-02-14T06:09:50.343Z,16.70
2019-02-14T06:12:16.127Z,14.10
2019-02-14T06:14:42.038Z,19.07
2019-02-14T06:17:07.857Z,19.53
2019-02-14T06:19:36.476Z,12.37
2019-02-14T06:22:02.342Z,13.45
2019-02-14T06:24:31.054Z,15.53
2019-02-14T06:26:56.960Z,9.65
2019-02-14T06:29:26.067Z,14.57
2019-02-14T06:31:51.871Z,20.00
2019-02-14T06:34:20.683Z,14.67
2019-02-14T06:36:46.506Z,27.27
2019-02-14T06:39:15.359Z,32.00
2019-02-14T06:41:41.252Z,33.10
2019-02-14T06:44:10.238Z,32.60
2019-02-14T06:46:36.304Z,33.20
2019-02-14T06:49:02.396Z,36.77
2019-02-14T06:51:28.454Z,47.75
2019-02-14T06:53:54.276Z,47.95
2019-02-14T06:56:20.118Z,42.77
2019-02-14T06:58:45.931Z,45.53
2019-02-14T07:01:15.074Z,38.73
2019-02-14T07:03:40.871Z,39.25
2019-02-14T07:06:09.834Z,26.93
2019-02-14T07:08:35.662Z,29.12
2019-02-14T07:11:04.507Z,20.07
2019-02-14T07:13:30.327Z,17.48
2019-02-14T07:15:58.442Z,17.33
2019-02-14T07:18:24.261Z,27.62
2019-02-14T07:20:56.054Z,37.27
2019-02-14T07:23:28.845Z,19.82
2019-02-14T07:25:54.705Z,18.95
2019-02-14T07:28:20.492Z,16.50
2019-02-14T07:30:46.291Z,16.77
2019-02-14T07:33:12.137Z,16.07
2019-02-14T07:35:37.958Z,21.07
2019-02-14T07:38:07.222Z,21.03
2019-02-14T07:40:33.037Z,20.05
2019-02-14T07:43:20.950Z,18.63
2019-02-14T07:45:46.762Z,13.05
2019-02-14T07:48:12.579Z,19.17
2019-02-14T07:50:38.388Z,11.50
2019-02-14T07:53:04.205Z,16.73
2019-02-14T07:55:30.315Z,13.97
2019-02-14T07:57:56.755Z,18.10
2019-02-14T08:00:22.646Z,16.27
2019-02-14T08:02:48.434Z,12.47
2019-02-14T08:05:14.565Z,11.80
2019-02-14T08:07:40.385Z,15.90
2019-02-14T08:10:14.232Z,12.03
2019-02-14T08:12:40.445Z,10.35
2019-02-14T08:15:11.858Z,20.15
2019-02-14T08:17:37.660Z,12.90
2019-02-14T08:20:10.547Z,14.03
2019-02-14T08:22:39.931Z,16.73
2019-02-14T08:25:08.051Z,22.10
2019-02-14T08:27:33.899Z,19.82
2019-02-14T08:29:59.710Z,30.60
2019-02-14T08:32:25.545Z,16.50
2019-02-14T08:34:51.379Z,22.73
2019-02-14T08:37:17.167Z,15.93
2019-02-14T08:39:42.994Z,15.40
2019-02-14T08:42:08.824Z,22.30
2019-02-14T08:44:34.646Z,21.70
2019-02-14T08:47:00.449Z,16.33
2019-02-14T08:49:26.250Z,19.77
2019-02-14T08:51:52.360Z,19.13
2019-02-14T08:54:18.135Z,17.20
2019-02-14T08:56:44.239Z,16.87
2019-02-14T08:59:10.054Z,17.32
2019-02-14T09:01:35.871Z,13.13
2019-02-14T09:04:01.667Z,15.33
2019-02-14T09:06:27.533Z,13.93
2019-02-14T09:08:53.614Z,32.43
2019-02-14T09:11:19.396Z,50.40
2019-02-14T09:13:45.475Z,44.50
2019-02-14T09:16:11.306Z,23.22
2019-02-14T09:18:37.468Z,41.83
2019-02-14T09:21:03.291Z,29.57
2019-02-14T09:23:29.093Z,23.13
2019-02-14T09:25:55.183Z,23.73
2019-02-14T09:28:20.999Z,23.57
2019-02-14T09:30:46.838Z,23.43
2019-02-14T09:33:12.937Z,16.10
2019-02-14T09:35:38.742Z,22.93
2019-02-14T09:38:24.502Z,18.37
2019-02-14T09:40:50.335Z,15.40
2019-02-14T09:43:16.128Z,18.47
2019-02-14T09:45:41.924Z,16.33
2019-02-14T09:48:07.718Z,21.97
2019-02-14T09:50:33.510Z,31.13
2019-02-14T09:52:59.591Z,18.37
2019-02-14T09:55:25.417Z,18.50
2019-02-14T09:57:51.238Z,18.80
2019-02-14T10:00:18.044Z,21.63
2019-02-14T10:02:44.152Z,30.77
2019-02-14T10:05:10.034Z,19.90
2019-02-14T10:07:35.962Z,19.77
2019-02-14T10:10:03.722Z,20.50
2019-02-14T10:12:29.536Z,20.50
2019-02-14T10:14:55.596Z,17.23
2019-02-14T10:17:22.408Z,16.43
2019-02-14T10:19:48.390Z,19.00
2019-02-14T10:22:14.266Z,15.60
2019-02-14T10:24:40.295Z,13.67
2019-02-14T10:27:06.101Z,14.90
2019-02-14T10:29:31.924Z,15.83
2019-02-14T10:31:57.731Z,32.33
2019-02-14T10:34:23.517Z,10.90
2019-02-14T10:36:52.104Z,12.73
2019-02-14T10:39:17.887Z,15.20
2019-02-14T10:41:48.794Z,12.43
2019-02-14T10:44:14.645Z,15.67
2019-02-14T10:46:43.705Z,17.90
2019-02-14T10:49:09.504Z,13.07
2019-02-14T10:51:38.399Z,16.60
2019-02-14T10:54:04.470Z,9.47
2019-02-14T10:56:33.370Z,6.80
2019-02-14T10:58:59.291Z,11.90
2019-02-14T11:01:25.212Z,7.40
2019-02-14T11:03:51.435Z,7.30
2019-02-14T11:06:17.273Z,7.00
2019-02-14T11:08:43.329Z,6.90
2019-02-14T11:11:09.261Z,5.93
2019-02-14T11:13:38.083Z,4.40
2019-02-14T11:16:04.296Z,6.30
2019-02-14T11:18:32.924Z,9.53
2019-02-14T11:20:58.760Z,6.27
2019-02-14T11:23:27.505Z,10.13
2019-02-14T11:25:53.351Z,12.10
2019-02-14T11:28:22.311Z,5.20
2019-02-14T11:30:48.140Z,9.37
2019-02-14T11:33:16.699Z,5.20
2019-02-14T11:35:42.525Z,8.00
2019-02-14T11:38:10.856Z,7.77
2019-02-14T11:40:36.957Z,7.30
2019-02-14T11:43:02.764Z,9.10
2019-02-14T11:45:28.597Z,5.83
2019-02-14T11:47:54.411Z,4.57
2019-02-14T11:50:22.475Z,5.97
2019-02-14T11:52:48.311Z,6.73
2019-02-14T11:55:16.969Z,5.60
2019-02-14T11:57:42.800Z,4.60
2019-02-14T12:00:26.520Z,7.50
2019-02-14T12:02:55.696Z,5.90
2019-02-14T12:05:20.197Z,5.83
2019-02-14T12:07:46.344Z,12.83
2019-02-14T12:10:13.897Z,7.00
2019-02-14T12:12:40.086Z,4.23
2019-02-14T12:15:08.300Z,7.50
2019-02-14T12:17:34.123Z,13.33
2019-02-14T12:19:59.827Z,9.63
2019-02-14T12:22:25.836Z,9.30
2019-02-14T12:24:51.651Z,6.43
2019-02-14T12:27:17.461Z,10.50
2019-02-14T12:29:43.552Z,10.27
2019-02-14T12:32:09.372Z,10.63
2019-02-14T12:34:35.443Z,9.33
2019-02-14T12:37:01.242Z,10.70
2019-02-14T12:39:27.341Z,16.50
2019-02-14T12:41:53.133Z,9.13
2019-02-14T12:44:19.192Z,15.13
2019-02-14T12:46:47.860Z,12.70
2019-02-14T12:49:13.675Z,17.27
2019-02-14T12:51:42.688Z,16.07
2019-02-14T12:54:11.342Z,8.37
2019-02-14T12:56:37.207Z,9.63
2019-02-14T12:59:03.047Z,17.37
2019-02-14T13:01:28.873Z,8.33
2019-02-14T13:03:54.671Z,8.70
2019-02-14T13:06:20.747Z,15.23
2019-02-14T13:08:49.645Z,9.43
2019-02-14T13:11:15.441Z,10.30
2019-02-14T13:13:49.819Z,20.23
2019-02-14T13:16:12.280Z,25.03
2019-02-14T13:18:38.086Z,11.23
2019-02-14T13:21:05.768Z,13.10
2019-02-14T13:23:31.768Z,6.70
2019-02-14T13:25:57.599Z,13.83
2019-02-14T13:28:26.514Z,17.37
2019-02-14T13:30:52.653Z,11.57
2019-02-14T13:33:18.444Z,6.60
2019-02-14T13:35:44.268Z,11.47
2019-02-14T13:38:10.052Z,8.63
2019-02-14T13:40:38.211Z,6.40
2019-02-14T13:43:26.130Z,8.40
2019-02-14T13:45:52.028Z,7.73
2019-02-14T13:48:17.822Z,8.47
2019-02-14T13:50:43.608Z,9.00
2019-02-14T13:53:09.426Z,9.87
2019-02-14T13:55:35.341Z,7.90
2019-02-14T13:58:01.401Z,8.90
2019-02-14T14:00:28.500Z,12.00
2019-02-14T14:02:54.310Z,9.57
2019-02-14T14:05:20.155Z,9.60
2019-02-14T14:07:45.982Z,11.80
2019-02-14T14:10:11.872Z,15.53
2019-02-14T14:12:53.184Z,9.17
2019-02-14T14:15:19.637Z,24.13
2019-02-14T14:17:45.687Z,16.80
2019-02-14T14:20:11.630Z,9.90
2019-02-14T14:22:37.593Z,14.40
2019-02-14T14:25:05.094Z,10.57
2019-02-14T14:27:31.303Z,8.63
2019-02-14T14:29:58.804Z,12.73
2019-02-14T14:32:24.785Z,11.10
2019-02-14T14:34:50.868Z,12.20
2019-02-14T14:37:19.713Z,15.83
2019-02-14T14:39:47.866Z,11.70
2019-02-14T14:42:27.775Z,10.10
2019-02-14T14:44:53.626Z,12.33
2019-02-14T14:47:19.422Z,8.00
2019-02-14T14:49:45.478Z,9.70
2019-02-14T14:52:11.279Z,5.60
2019-02-14T14:54:37.115Z,15.90
2019-02-14T14:57:03.190Z,10.30
2019-02-14T14:59:28.996Z,9.47
2019-02-14T15:01:54.843Z,6.13
2019-02-14T15:04:20.899Z,8.87
2019-02-14T15:06:47.119Z,8.20
2019-02-14T15:09:12.917Z,11.83
2019-02-14T15:11:38.736Z,10.43
2019-02-14T15:14:04.520Z,13.70
2019-02-14T15:16:30.355Z,6.63
2019-02-14T15:18:56.447Z,11.80
2019-02-14T15:21:22.604Z,7.90
2019-02-14T15:23:48.425Z,10.90
2019-02-14T15:26:14.279Z,16.87
2019-02-14T15:28:40.082Z,9.57
2019-02-14T15:33:42.642Z,12.67
2019-02-14T15:36:08.485Z,7.17
2019-02-14T15:38:35.045Z,12.80
2019-02-14T15:41:01.986Z,7.63
2019-02-14T15:43:27.799Z,14.30
2019-02-14T15:45:53.621Z,18.30
2019-02-14T15:48:19.541Z,24.67
2019-02-14T15:50:45.386Z,12.63
2019-02-14T15:53:11.189Z,15.73
2019-02-14T15:55:39.082Z,11.20
2019-02-14T15:58:07.290Z,7.77
2019-02-14T16:00:35.147Z,22.50
2019-02-14T16:03:06.973Z,20.30
2019-02-14T16:05:32.772Z,18.73
2019-02-14T16:08:00.500Z,17.23
2019-02-14T16:10:27.749Z,24.67
2019-02-14T16:12:54.363Z,19.90
2019-02-14T16:15:20.432Z,16.30
2019-02-14T16:17:46.524Z,9.93
2019-02-14T16:20:12.650Z,19.33
2019-02-14T16:22:40.214Z,16.43
2019-02-14T16:25:06.976Z,16.67
2019-02-14T16:27:32.937Z,14.70
2019-02-14T16:29:58.753Z,23.40
2019-02-14T16:32:24.564Z,13.53
2019-02-14T16:34:50.381Z,17.90
2019-02-14T16:37:16.474Z,11.27
2019-02-14T16:39:51.315Z,20.77
2019-02-14T16:42:10.022Z,10.10
2019-02-14T16:44:36.120Z,12.20
2019-02-14T16:47:01.954Z,15.40
2019-02-14T16:49:27.754Z,11.40
2019-02-14T16:51:53.596Z,11.97
2019-02-14T16:54:19.671Z,12.70
2019-02-14T16:56:45.766Z,20.62
2019-02-14T16:59:11.585Z,17.67
2019-02-14T17:01:37.423Z,12.80
2019-02-14T17:04:06.032Z,22.03
2019-02-14T17:06:32.125Z,12.70
2019-02-14T17:09:01.235Z,12.85
2019-02-14T17:11:27.058Z,15.15
2019-02-14T17:13:52.852Z,14.33
2019-02-14T17:16:18.690Z,17.80
2019-02-14T17:18:44.539Z,19.07
2019-02-14T17:21:10.330Z,20.03
2019-02-14T17:23:36.291Z,14.70
2019-02-14T17:26:04.987Z,17.30
2019-02-14T17:28:31.111Z,20.75
2019-02-14T17:31:00.219Z,22.58
2019-02-14T17:33:26.458Z,26.60
2019-02-14T17:35:55.674Z,29.25
2019-02-14T17:38:21.546Z,33.50
2019-02-14T17:40:50.124Z,26.43
2019-02-14T17:43:16.212Z,14.73
2019-02-14T17:45:45.028Z,20.85
2019-02-14T17:48:11.159Z,20.02
2019-02-14T17:50:37.228Z,16.75
2019-02-14T17:53:03.320Z,20.77
2019-02-14T17:55:29.394Z,20.05
2019-02-14T17:57:58.025Z,22.32
2019-02-14T18:00:23.863Z,34.48
2019-02-14T18:02:52.783Z,30.07
2019-02-14T18:05:18.618Z,21.15
2019-02-14T18:07:47.403Z,19.07
2019-02-14T18:10:13.326Z,17.27
2019-02-14T18:12:42.163Z,18.37
2019-02-14T18:15:10.571Z,26.50
2019-02-14T18:17:36.399Z,39.85
2019-02-14T18:20:03.032Z,14.27
2019-02-14T18:22:33.089Z,24.67
2019-02-14T18:24:59.314Z,20.95
2019-02-14T18:27:25.445Z,28.85
2019-02-14T18:29:51.276Z,11.95
2019-02-14T18:32:17.082Z,18.60
2019-02-14T18:34:43.206Z,16.00
2019-02-14T18:37:09.229Z,23.73
2019-02-14T18:39:38.089Z,14.70
2019-02-14T18:42:04.197Z,16.82
2019-02-14T18:44:32.858Z,12.78
2019-02-14T18:46:58.952Z,16.87
2019-02-14T18:49:28.116Z,12.05
2019-02-14T18:51:53.918Z,14.87
2019-02-14T18:54:20.077Z,20.07
2019-02-14T18:56:45.871Z,14.93
2019-02-14T18:59:15.251Z,16.00
2019-02-14T19:01:41.295Z,12.75
2019-02-14T19:04:07.124Z,16.60
2019-02-14T19:06:32.922Z,14.03
2019-02-14T19:08:58.743Z,20.63
2019-02-14T19:11:27.560Z,32.90
2019-02-14T19:13:53.380Z,29.42
2019-02-14T19:16:22.398Z,14.00
2019-02-14T19:18:48.186Z,21.52
2019-02-14T19:21:16.805Z,16.30
2019-02-14T19:23:42.615Z,31.95
2019-02-14T19:26:11.585Z,16.17
2019-02-14T19:28:37.426Z,19.73
2019-02-14T19:31:06.377Z,15.00
2019-02-14T19:33:32.528Z,17.27
2019-02-14T19:36:00.110Z,17.35
2019-02-14T19:38:26.198Z,20.05
2019-02-14T19:40:51.999Z,14.45
2019-02-14T19:43:17.833Z,21.93
2019-02-14T19:45:43.664Z,16.73
2019-02-14T19:48:12.602Z,16.47
2019-02-14T19:50:38.719Z,24.00
2019-02-14T19:53:07.441Z,29.20
2019-02-14T19:55:33.550Z,33.53
2019-02-14T19:58:02.210Z,28.25
2019-02-14T20:00:27.995Z,30.40
2019-02-14T20:02:56.756Z,33.90
2019-02-14T20:05:22.577Z,27.37
2019-02-14T20:07:51.494Z,34.77
2019-02-14T20:10:17.528Z,16.42
2019-02-14T20:12:46.555Z,27.48
2019-02-14T20:15:18.862Z,29.07
2019-02-14T20:17:44.689Z,18.17
2019-02-14T20:20:10.547Z,26.80
2019-02-14T20:22:36.720Z,20.63
2019-02-14T20:25:06.597Z,38.20
2019-02-14T20:27:32.753Z,18.57
2019-02-14T20:29:58.601Z,19.77
2019-02-14T20:32:24.389Z,17.90
2019-02-14T20:34:50.185Z,17.33
2019-02-14T20:37:16.262Z,28.60
2019-02-14T20:39:42.055Z,35.00
2019-02-14T20:42:08.146Z,34.73
2019-02-14T20:44:36.951Z,27.48
2019-02-14T20:47:03.059Z,23.92
2019-02-14T20:49:32.209Z,29.37
2019-02-14T20:51:58.280Z,26.50
2019-02-14T20:54:24.102Z,22.67
2019-02-14T20:56:51.608Z,30.77
2019-02-14T20:59:17.417Z,33.00
2019-02-14T21:01:43.385Z,26.63
2019-02-14T21:04:09.204Z,26.50
2019-02-14T21:06:38.040Z,23.53
2019-02-14T21:09:04.452Z,29.57
2019-02-14T21:11:33.352Z,21.93
2019-02-14T21:13:59.154Z,21.62
2019-02-14T21:16:27.725Z,20.77
2019-02-14T21:18:53.558Z,14.25
2019-02-14T21:21:22.560Z,17.70
2019-02-14T21:23:48.396Z,23.32
2019-02-14T21:26:17.230Z,16.93
2019-02-14T21:28:43.085Z,12.73
2019-02-14T21:31:08.917Z,14.60
2019-02-14T21:33:34.725Z,20.03
2019-02-14T21:36:00.545Z,18.43
2019-02-14T21:38:29.262Z,13.60
2019-02-14T21:40:55.170Z,14.18
2019-02-14T21:43:24.224Z,17.83
2019-02-14T21:45:50.042Z,13.38
2019-02-14T21:48:18.725Z,13.60
2019-02-14T21:50:44.483Z,13.53
2019-02-14T21:53:13.087Z,37.20
2019-02-14T21:55:38.893Z,30.80
2019-02-14T21:58:07.565Z,43.27
2019-02-14T22:00:33.446Z,24.65
2019-02-14T22:03:03.108Z,18.27
2019-02-14T22:05:28.991Z,21.20
2019-02-14T22:07:57.814Z,19.87
2019-02-14T22:10:23.657Z,29.10
2019-02-14T22:12:49.473Z,31.73
2019-02-14T22:15:21.302Z,31.10
2019-02-14T22:17:47.204Z,23.77
2019-02-14T22:20:12.971Z,30.30
2019-02-14T22:22:39.141Z,27.20
2019-02-14T22:25:07.459Z,19.73
2019-02-14T22:27:33.267Z,36.70
2019-02-14T22:29:59.364Z,28.37
2019-02-14T22:32:25.189Z,29.05
2019-02-14T22:34:54.012Z,33.57
2019-02-14T22:37:19.801Z,27.02
2019-02-14T22:39:48.372Z,29.00
2019-02-14T22:42:14.200Z,32.15
2019-02-14T22:44:40.005Z,23.07
2019-02-14T22:47:06.148Z,24.60
2019-02-14T22:49:31.982Z,26.90
2019-02-14T22:52:04.223Z,25.40
2019-02-14T22:54:30.074Z,27.82
2019-02-14T22:56:59.531Z,22.50
2019-02-14T22:59:25.602Z,16.75
2019-02-14T23:01:51.431Z,22.42
2019-02-14T23:04:17.209Z,18.93
2019-02-14T23:06:43.042Z,20.90
2019-02-14T23:09:09.103Z,17.30
2019-02-14T23:11:37.978Z,28.83
2019-02-14T23:14:03.847Z,14.60
2019-02-14T23:16:31.888Z,10.63
2019-02-14T23:18:58.034Z,12.40
2019-02-14T23:21:23.840Z,17.95
2019-02-14T23:23:49.978Z,17.03
2019-02-14T23:26:15.766Z,26.35
2019-02-14T23:28:43.766Z,27.50
2019-02-14T23:31:09.690Z,26.25
2019-02-14T23:33:38.799Z,20.93
2019-02-14T23:36:05.083Z,25.23
2019-02-14T23:38:33.120Z,25.25
2019-02-14T23:40:58.960Z,22.60
2019-02-14T23:43:27.709Z,24.00
2019-02-14T23:45:56.977Z,26.37
2019-02-14T23:48:23.096Z,22.95
2019-02-14T23:50:48.907Z,21.75
2019-02-14T23:53:17.780Z,20.90
2019-02-14T23:55:43.862Z,21.00
2019-02-14T23:58:10.113Z,14.45
